createdAt,value
2023-04-25T00:02:14.521Z,98966.61
2023-04-25T00:04:41.974Z,98967.23
2023-04-25T00:07:09.030Z,98964.49
2023-04-25T00:09:35.922Z,98963.65
2023-04-25T00:12:02.796Z,98961.76
2023-04-25T00:14:30.651Z,98959.82
2023-04-25T00:16:57.550Z,98956.01
2023-04-25T00:19:24.340Z,98952.81
2023-04-25T00:21:51.269Z,98949.09
2023-04-25T00:24:18.112Z,98947.84
2023-04-25T00:26:44.980Z,98946.46
2023-04-25T00:29:12.111Z,98943.23
2023-04-25T00:31:39.199Z,98946.19
2023-04-25T00:34:07.500Z,98945.58
2023-04-25T00:36:35.720Z,98942.31
2023-04-25T00:39:02.681Z,98939.50
2023-04-25T00:41:31.237Z,98935.98
2023-04-25T00:43:58.154Z,98934.65
2023-04-25T00:46:25.067Z,98933.73
2023-04-25T00:48:51.944Z,98930.69
2023-04-25T00:51:21.399Z,98930.45
2023-04-25T00:53:50.158Z,98931.21
2023-04-25T00:56:17.548Z,98931.02
2023-04-25T00:58:44.734Z,98930.75
2023-04-25T01:01:12.145Z,98929.20
2023-04-25T01:03:42.108Z,98929.04
2023-04-25T01:06:10.487Z,98927.88
2023-04-25T01:08:38.944Z,98929.59
2023-04-25T01:11:06.837Z,98926.41
2023-04-25T01:13:34.006Z,98928.45
2023-04-25T01:16:01.500Z,98926.52
2023-04-25T01:18:28.426Z,98927.78
2023-04-25T01:20:55.465Z,98924.44
2023-04-25T01:23:23.034Z,98928.51
2023-04-25T01:25:50.563Z,98923.55
2023-04-25T01:28:17.542Z,98928.85
2023-04-25T01:30:44.446Z,98929.77
2023-04-25T01:33:11.390Z,98932.48
2023-04-25T01:35:38.280Z,98925.24
2023-04-25T01:38:05.262Z,98921.73
2023-04-25T01:40:33.374Z,98921.40
2023-04-25T01:43:00.323Z,98919.23
2023-04-25T01:45:27.274Z,98912.70
2023-04-25T01:47:54.269Z,98913.45
2023-04-25T01:50:21.438Z,98910.76
2023-04-25T01:52:48.768Z,98908.33
2023-04-25T01:55:15.792Z,98911.05
2023-04-25T01:58:04.237Z,98907.70
2023-04-25T02:00:50.907Z,98907.98
2023-04-25T02:03:17.908Z,98904.95
2023-04-25T02:05:44.931Z,98906.90
2023-04-25T02:08:13.164Z,98907.46
2023-04-25T02:10:40.059Z,98909.79
2023-04-25T02:13:18.984Z,98908.58
2023-04-25T02:16:04.928Z,98902.64
2023-04-25T02:18:32.474Z,98903.16
2023-04-25T02:21:02.890Z,98905.84
2023-04-25T02:23:29.884Z,98902.48
2023-04-25T02:25:58.408Z,98905.70
2023-04-25T02:28:26.902Z,98910.55
2023-04-25T02:30:54.037Z,98907.40
2023-04-25T02:33:22.062Z,98905.90
2023-04-25T02:35:49.072Z,98903.23
2023-04-25T02:38:16.122Z,98901.17
2023-04-25T02:40:43.055Z,98899.70
2023-04-25T02:43:09.992Z,98897.27
2023-04-25T02:45:36.879Z,98894.16
2023-04-25T02:48:04.421Z,98895.10
2023-04-25T02:50:32.543Z,98890.65
2023-04-25T02:52:59.843Z,98891.51
2023-04-25T02:55:30.368Z,98888.76
2023-04-25T02:57:57.549Z,98888.88
2023-04-25T03:00:38.030Z,98887.63
2023-04-25T03:03:05.031Z,98890.77
2023-04-25T03:05:31.896Z,98895.83
2023-04-25T03:07:59.998Z,98897.23
2023-04-25T03:10:27.154Z,98897.92
2023-04-25T03:12:54.434Z,98902.73
2023-04-25T03:15:21.339Z,98904.27
2023-04-25T03:17:48.177Z,98906.20
2023-04-25T03:20:15.095Z,98903.82
2023-04-25T03:22:42.038Z,98902.85
2023-04-25T03:25:09.597Z,98896.30
2023-04-25T03:27:36.496Z,98896.51
2023-04-25T03:30:03.884Z,98896.04
2023-04-25T03:32:30.982Z,98900.51
2023-04-25T03:34:57.896Z,98898.15
2023-04-25T03:37:25.770Z,98899.08
2023-04-25T03:39:52.642Z,98895.05
2023-04-25T03:42:19.738Z,98898.38
2023-04-25T03:44:47.042Z,98896.00
2023-04-25T03:47:14.445Z,98894.67
2023-04-25T03:49:41.272Z,98893.95
2023-04-25T03:52:08.347Z,98897.63
2023-04-25T03:54:38.522Z,98893.88
2023-04-25T03:57:08.796Z,98893.81
2023-04-25T03:59:38.098Z,98892.46
2023-04-25T04:02:06.133Z,98894.23
2023-04-25T04:04:35.227Z,98894.99
2023-04-25T04:07:02.356Z,98893.92
2023-04-25T04:09:32.325Z,98895.17
2023-04-25T04:12:02.863Z,98898.66
2023-04-25T04:14:31.330Z,98898.73
2023-04-25T04:16:58.222Z,98896.90
2023-04-25T04:19:25.470Z,98895.57
2023-04-25T04:22:24.766Z,98893.89
2023-04-25T04:24:54.005Z,98894.52
2023-04-25T04:27:30.902Z,98896.66
2023-04-25T04:30:17.983Z,98898.61
2023-04-25T04:32:57.162Z,98891.26
2023-04-25T04:35:24.527Z,98888.33
2023-04-25T04:37:51.771Z,98888.63
2023-04-25T04:40:20.108Z,98889.19
2023-04-25T04:42:58.416Z,98888.86
2023-04-25T04:45:45.701Z,98888.45
2023-04-25T04:48:36.343Z,98885.47
2023-04-25T04:51:15.099Z,98884.14
2023-04-25T04:53:54.237Z,98882.96
2023-04-25T04:56:51.378Z,98880.63
2023-04-25T04:59:28.561Z,98879.38
2023-04-25T05:02:14.335Z,98878.27
2023-04-25T05:05:00.837Z,98878.14
2023-04-25T05:07:47.701Z,98884.73
2023-04-25T05:10:44.984Z,98880.95
2023-04-25T05:13:20.317Z,98879.33
2023-04-25T05:16:16.558Z,98879.11
2023-04-25T05:18:55.161Z,98870.22
2023-04-25T05:21:42.336Z,98869.92
2023-04-25T05:24:29.606Z,98869.21
2023-04-25T05:27:24.897Z,98870.20
2023-04-25T05:30:26.935Z,98869.74
2023-04-25T05:33:18.162Z,98872.34
2023-04-25T05:35:45.952Z,98871.45
2023-04-25T05:38:12.854Z,98866.55
2023-04-25T05:40:58.485Z,98867.13
2023-04-25T05:43:50.937Z,98870.65
2023-04-25T05:46:41.207Z,98871.66
2023-04-25T05:49:26.836Z,98873.49
2023-04-25T05:51:53.689Z,98869.98
2023-04-25T05:54:36.534Z,98865.75
2023-04-25T05:57:03.775Z,98865.38
2023-04-25T05:59:31.021Z,98862.43
2023-04-25T06:01:58.152Z,98863.64
2023-04-25T06:04:25.468Z,98866.05
2023-04-25T06:06:52.496Z,98857.85
2023-04-25T06:09:19.363Z,98857.80
2023-04-25T06:11:46.612Z,98854.97
2023-04-25T06:14:13.540Z,98856.42
2023-04-25T06:16:43.543Z,98850.29
2023-04-25T06:19:11.438Z,98850.61
2023-04-25T06:21:38.388Z,98850.36
2023-04-25T06:24:05.668Z,98844.95
2023-04-25T06:26:32.768Z,98844.37
2023-04-25T06:28:59.592Z,98841.44
2023-04-25T06:31:27.014Z,98839.00
2023-04-25T06:33:55.977Z,98834.36
2023-04-25T06:36:26.273Z,98836.59
2023-04-25T06:38:55.427Z,98833.65
2023-04-25T06:41:22.339Z,98830.59
2023-04-25T06:43:49.319Z,98829.35
2023-04-25T06:46:33.381Z,98829.30
2023-04-25T06:49:04.498Z,98822.77
2023-04-25T06:51:32.804Z,98825.63
2023-04-25T06:54:00.056Z,98821.34
2023-04-25T06:56:32.012Z,98819.13
2023-04-25T06:59:08.791Z,98816.41
2023-04-25T07:01:38.107Z,98816.13
2023-04-25T07:04:09.484Z,98811.20
2023-04-25T07:06:43.626Z,98813.23
2023-04-25T07:09:11.262Z,98817.64
2023-04-25T07:11:38.732Z,98816.06
2023-04-25T07:14:05.725Z,98817.09
2023-04-25T07:16:32.576Z,98816.16
2023-04-25T07:19:00.701Z,98814.14
2023-04-25T07:21:27.757Z,98811.58
2023-04-25T07:23:55.332Z,98812.33
2023-04-25T07:26:25.958Z,98816.56
2023-04-25T07:29:14.234Z,98820.92
2023-04-25T07:31:41.167Z,98816.73
2023-04-25T07:34:08.269Z,98816.85
2023-04-25T07:36:35.845Z,98814.03
2023-04-25T07:39:02.767Z,98813.95
2023-04-25T07:41:30.514Z,98811.55
2023-04-25T07:43:57.439Z,98809.71
2023-04-25T07:46:24.461Z,98808.00
2023-04-25T07:48:53.265Z,98810.11
2023-04-25T07:51:21.157Z,98805.30
2023-04-25T07:53:50.669Z,98806.45
2023-04-25T07:56:18.344Z,98801.40
2023-04-25T07:58:46.375Z,98807.08
2023-04-25T08:01:14.596Z,98805.10
2023-04-25T08:03:51.822Z,98806.81
2023-04-25T08:06:24.887Z,98808.23
2023-04-25T08:09:10.543Z,98804.67
2023-04-25T08:11:39.523Z,98806.69
2023-04-25T08:14:07.200Z,98806.69
2023-04-25T08:16:34.469Z,98809.36
2023-04-25T08:19:02.026Z,98807.31
2023-04-25T08:21:29.009Z,98801.31
2023-04-25T08:23:56.792Z,98803.23
2023-04-25T08:26:29.381Z,98803.05
2023-04-25T08:28:56.336Z,98803.95
2023-04-25T08:31:23.220Z,98801.67
2023-04-25T08:33:57.872Z,98802.33
2023-04-25T08:36:46.040Z,98794.20
2023-04-25T08:39:39.235Z,98792.89
2023-04-25T08:42:36.734Z,98789.44
2023-04-25T08:45:07.558Z,98781.37
2023-04-25T08:47:39.166Z,98784.46
2023-04-25T08:50:07.164Z,98784.54
2023-04-25T08:52:38.671Z,98784.04
2023-04-25T08:55:06.527Z,98782.80
2023-04-25T08:57:33.751Z,98779.98
2023-04-25T09:00:00.673Z,98775.41
2023-04-25T09:02:28.573Z,98772.66
2023-04-25T09:04:56.601Z,98770.82
2023-04-25T09:07:23.659Z,98770.65
2023-04-25T09:09:50.738Z,98769.66
2023-04-25T09:12:20.590Z,98771.21
2023-04-25T09:15:08.374Z,98771.08
2023-04-25T09:18:07.950Z,98764.85
2023-04-25T09:20:59.691Z,98764.44
2023-04-25T09:23:27.964Z,98762.52
2023-04-25T09:25:55.074Z,98760.15
2023-04-25T09:28:28.565Z,98761.83
2023-04-25T09:30:58.772Z,98760.08
2023-04-25T09:33:38.060Z,98755.75
2023-04-25T09:36:08.339Z,98760.19
2023-04-25T09:38:48.426Z,98754.70
2023-04-25T09:41:42.387Z,98747.06
2023-04-25T09:44:09.458Z,98749.27
2023-04-25T09:46:37.896Z,98745.90
2023-04-25T09:49:08.862Z,98745.37
2023-04-25T09:51:42.008Z,98738.69
2023-04-25T09:54:09.588Z,98732.33
2023-04-25T09:56:49.329Z,98731.00
2023-04-25T09:59:16.833Z,98728.58
2023-04-25T10:01:44.155Z,98726.09
2023-04-25T10:04:25.678Z,98726.59
2023-04-25T10:07:11.073Z,98724.27
2023-04-25T10:09:38.975Z,98720.65
2023-04-25T10:12:06.074Z,98718.29
2023-04-25T10:14:33.028Z,98718.21
2023-04-25T10:17:00.327Z,98715.03
2023-04-25T10:19:28.559Z,98710.32
2023-04-25T10:22:17.668Z,98710.60
2023-04-25T10:24:44.908Z,98707.48
2023-04-25T10:27:12.273Z,98705.27
2023-04-25T10:29:39.351Z,98698.90
2023-04-25T10:32:06.449Z,98699.58
2023-04-25T10:34:41.164Z,98701.80
2023-04-25T10:37:10.319Z,98702.86
2023-04-25T10:39:37.263Z,98694.80
2023-04-25T10:42:04.148Z,98693.70
2023-04-25T10:44:31.220Z,98689.95
2023-04-25T10:46:59.148Z,98695.89
2023-04-25T10:49:46.396Z,98697.95
2023-04-25T10:52:32.284Z,98694.68
2023-04-25T10:54:59.248Z,98685.34
2023-04-25T10:57:30.564Z,98690.41
2023-04-25T11:00:09.587Z,98686.83
2023-04-25T11:02:46.424Z,98686.64
2023-04-25T11:05:50.961Z,98684.73
2023-04-25T11:08:31.586Z,98684.08
2023-04-25T11:10:58.501Z,98683.67
2023-04-25T11:13:30.980Z,98680.20
2023-04-25T11:16:07.236Z,98679.46
2023-04-25T11:18:43.121Z,98671.73
2023-04-25T11:21:10.654Z,98670.15
2023-04-25T11:23:37.927Z,98666.39
2023-04-25T11:26:05.216Z,98666.33
2023-04-25T11:28:32.185Z,98665.92
2023-04-25T11:30:59.076Z,98660.39
2023-04-25T11:33:27.030Z,98654.84
2023-04-25T11:35:57.590Z,98653.45
2023-04-25T11:38:26.697Z,98650.10
2023-04-25T11:40:54.461Z,98650.39
2023-04-25T11:43:25.199Z,98647.23
2023-04-25T11:45:52.892Z,98647.75
2023-04-25T11:48:20.495Z,98650.27
2023-04-25T11:50:47.972Z,98642.18
2023-04-25T11:53:15.130Z,98641.38
2023-04-25T11:55:42.067Z,98638.13
2023-04-25T11:58:09.790Z,98636.48
2023-04-25T12:00:36.847Z,98633.28
2023-04-25T12:03:04.277Z,98633.05
2023-04-25T12:05:35.026Z,98632.88
2023-04-25T12:08:15.572Z,98629.02
2023-04-25T12:10:44.202Z,98623.67
2023-04-25T12:13:21.408Z,98620.50
2023-04-25T12:15:48.365Z,98621.14
2023-04-25T12:18:15.593Z,98624.36
2023-04-25T12:20:42.538Z,98620.94
2023-04-25T12:23:09.435Z,98618.31
2023-04-25T12:25:36.754Z,98612.69
2023-04-25T12:28:26.065Z,98611.70
2023-04-25T12:30:59.372Z,98608.95
2023-04-25T12:33:27.409Z,98603.48
2023-04-25T12:35:55.180Z,98603.37
2023-04-25T12:38:32.453Z,98602.34
2023-04-25T12:40:59.586Z,98596.57
2023-04-25T12:43:26.566Z,98592.39
2023-04-25T12:45:54.656Z,98592.45
2023-04-25T12:48:21.806Z,98589.74
2023-04-25T12:50:55.376Z,98583.25
2023-04-25T12:53:23.732Z,98581.08
2023-04-25T12:55:51.026Z,98579.25
2023-04-25T12:58:19.150Z,98570.49
2023-04-25T13:00:46.188Z,98565.19
2023-04-25T13:06:00.346Z,98558.32
2023-04-25T13:08:27.703Z,98553.70
2023-04-25T13:10:54.581Z,98550.11
2023-04-25T13:11:27.828Z,98564.74
2023-04-25T13:13:21.512Z,98547.38
2023-04-25T13:15:48.840Z,98546.06
2023-04-25T13:18:16.246Z,98549.92
2023-04-25T13:20:43.179Z,98547.14
2023-04-25T13:23:09.989Z,98542.13
2023-04-25T13:25:36.801Z,98541.33
2023-04-25T13:28:04.184Z,98534.30
2023-04-25T13:30:31.267Z,98534.05
2023-04-25T13:32:58.475Z,98529.63
2023-04-25T13:35:25.784Z,98529.21
2023-04-25T13:37:52.632Z,98529.33
2023-04-25T13:40:19.431Z,98524.76
2023-04-25T13:42:46.541Z,98525.77
2023-04-25T13:45:13.475Z,98521.44
2023-04-25T13:47:40.447Z,98515.45
2023-04-25T13:50:09.023Z,98512.96
2023-04-25T13:52:36.064Z,98510.27
2023-04-25T13:55:05.032Z,98505.17
2023-04-25T13:57:32.182Z,98502.42
2023-04-25T13:59:59.014Z,98506.92
2023-04-25T14:02:26.298Z,98506.53
2023-04-25T14:04:53.441Z,98503.00
2023-04-25T14:07:22.139Z,98505.29
2023-04-25T14:09:49.068Z,98502.10
2023-04-25T14:12:16.899Z,98504.06
2023-04-25T14:14:43.745Z,98505.55
2023-04-25T14:17:10.788Z,98504.05
2023-04-25T14:19:39.665Z,98499.29
2023-04-25T14:22:06.958Z,98493.73
2023-04-25T14:24:33.756Z,98493.78
2023-04-25T14:27:00.933Z,98489.30
2023-04-25T14:29:27.890Z,98491.52
2023-04-25T14:31:55.430Z,98490.72
2023-04-25T14:34:22.383Z,98489.52
2023-04-25T14:36:49.257Z,98488.51
2023-04-25T14:39:16.295Z,98483.20
2023-04-25T14:41:43.227Z,98477.92
2023-04-25T14:44:10.261Z,98476.98
2023-04-25T14:46:37.705Z,98479.38
2023-04-25T14:49:04.975Z,98476.77
2023-04-25T14:51:33.688Z,98473.10
2023-04-25T14:54:01.298Z,98474.09
2023-04-25T14:56:28.121Z,98474.38
2023-04-25T14:58:54.963Z,98471.56
2023-04-25T15:01:22.058Z,98466.73
2023-04-25T15:03:49.692Z,98469.52
2023-04-25T15:06:16.757Z,98465.92
2023-04-25T15:08:43.593Z,98461.70
2023-04-25T15:11:12.163Z,98456.83
2023-04-25T15:13:39.023Z,98457.42
2023-04-25T15:16:07.359Z,98457.45
2023-04-25T15:18:34.386Z,98453.91
2023-04-25T15:21:01.487Z,98451.27
2023-04-25T15:23:29.868Z,98449.05
2023-04-25T15:25:56.952Z,98450.17
2023-04-25T15:28:23.848Z,98449.01
2023-04-25T15:30:51.582Z,98445.23
2023-04-25T15:33:18.477Z,98444.56
2023-04-25T15:35:45.620Z,98440.01
2023-04-25T15:38:12.519Z,98439.92
2023-04-25T15:40:39.396Z,98437.54
2023-04-25T15:43:07.502Z,98435.94
2023-04-25T15:45:36.007Z,98433.81
2023-04-25T15:48:02.913Z,98435.08
2023-04-25T15:50:30.002Z,98433.03
2023-04-25T15:52:58.170Z,98433.10
2023-04-25T15:55:27.105Z,98431.13
2023-04-25T15:57:54.493Z,98428.07
2023-04-25T16:00:22.593Z,98427.92
2023-04-25T16:02:49.901Z,98429.74
2023-04-25T16:05:17.956Z,98425.57
2023-04-25T16:07:45.899Z,98426.54
2023-04-25T16:10:13.273Z,98425.63
2023-04-25T16:12:40.761Z,98426.81
2023-04-25T16:15:08.276Z,98425.38
2023-04-25T16:17:35.496Z,98423.02
2023-04-25T16:20:06.642Z,98425.60
2023-04-25T16:22:33.662Z,98424.38
2023-04-25T16:25:00.719Z,98423.90
2023-04-25T16:27:27.670Z,98428.41
2023-04-25T16:29:54.569Z,98428.79
2023-04-25T16:32:21.472Z,98429.88
2023-04-25T16:34:48.358Z,98429.40
2023-04-25T16:37:15.213Z,98429.96
2023-04-25T16:39:42.105Z,98425.83
2023-04-25T16:42:09.096Z,98424.44
2023-04-25T16:44:36.122Z,98422.70
2023-04-25T16:47:04.068Z,98427.80
2023-04-25T16:49:31.049Z,98428.05
2023-04-25T16:51:57.989Z,98429.02
2023-04-25T16:54:25.816Z,98426.73
2023-04-25T16:56:52.822Z,98427.20
2023-04-25T16:59:20.077Z,98427.63
2023-04-25T17:01:46.892Z,98432.39
2023-04-25T17:04:13.983Z,98431.14
2023-04-25T17:06:41.031Z,98431.45
2023-04-25T17:09:08.392Z,98431.78
2023-04-25T17:11:35.349Z,98428.88
2023-04-25T17:14:02.179Z,98429.52
2023-04-25T17:16:38.379Z,98431.08
2023-04-25T17:19:05.915Z,98434.07
2023-04-25T17:21:33.288Z,98433.66
2023-04-25T17:24:00.466Z,98437.61
2023-04-25T17:26:27.597Z,98440.48
2023-04-25T17:28:54.863Z,98441.61
2023-04-25T17:31:24.080Z,98445.23
2023-04-25T17:33:51.060Z,98449.48
2023-04-25T17:36:18.436Z,98450.23
2023-04-25T17:38:45.421Z,98450.14
2023-04-25T17:41:13.458Z,98452.49
2023-04-25T17:43:40.981Z,98456.68
2023-04-25T17:46:07.934Z,98456.21
2023-04-25T17:48:34.975Z,98456.09
2023-04-25T17:51:02.750Z,98456.68
2023-04-25T17:53:29.631Z,98457.95
2023-04-25T17:55:56.555Z,98459.29
2023-04-25T17:58:23.463Z,98459.97
2023-04-25T18:00:50.306Z,98459.60
2023-04-25T18:03:17.536Z,98461.47
2023-04-25T18:05:44.441Z,98459.07
2023-04-25T18:08:11.476Z,98466.16
2023-04-25T18:10:39.126Z,98463.51
2023-04-25T18:13:06.001Z,98464.13
2023-04-25T18:15:32.853Z,98463.70
2023-04-25T18:17:59.967Z,98467.77
2023-04-25T18:20:28.756Z,98467.02
2023-04-25T18:22:55.957Z,98470.06
2023-04-25T18:25:22.861Z,98473.63
2023-04-25T18:27:50.808Z,98474.17
2023-04-25T18:30:17.703Z,98472.98
2023-04-25T18:32:44.648Z,98471.34
2023-04-25T18:35:12.392Z,98471.50
2023-04-25T18:37:41.654Z,98469.52
2023-04-25T18:40:14.033Z,98469.75
2023-04-25T18:42:41.067Z,98473.14
2023-04-25T18:45:09.345Z,98470.82
2023-04-25T18:47:36.278Z,98469.63
2023-04-25T18:50:04.829Z,98474.33
2023-04-25T18:52:31.823Z,98476.70
2023-04-25T18:54:58.624Z,98476.65
2023-04-25T18:57:26.649Z,98474.70
2023-04-25T18:59:53.932Z,98477.85
2023-04-25T19:02:23.059Z,98475.73
2023-04-25T19:04:50.298Z,98476.06
2023-04-25T19:07:17.302Z,98474.26
2023-04-25T19:09:44.410Z,98473.16
2023-04-25T19:12:11.471Z,98472.26
2023-04-25T19:14:38.348Z,98469.80
2023-04-25T19:17:05.208Z,98472.16
2023-04-25T19:19:32.656Z,98471.65
2023-04-25T19:21:59.661Z,98470.87
2023-04-25T19:24:27.302Z,98469.46
2023-04-25T19:26:54.236Z,98465.20
2023-04-25T19:29:21.442Z,98467.39
2023-04-25T19:31:48.390Z,98470.58
2023-04-25T19:34:15.316Z,98468.76
2023-04-25T19:36:42.374Z,98469.11
2023-04-25T19:39:09.437Z,98467.52
2023-04-25T19:41:37.389Z,98468.30
2023-04-25T19:44:08.530Z,98463.40
2023-04-25T19:46:36.229Z,98466.67
2023-04-25T19:49:06.032Z,98463.58
2023-04-25T19:51:34.181Z,98464.59
2023-04-25T19:54:01.047Z,98457.63
2023-04-25T19:56:28.069Z,98459.02
2023-04-25T19:58:55.034Z,98462.52
2023-04-25T20:01:22.625Z,98462.21
2023-04-25T20:03:52.773Z,98460.11
2023-04-25T20:06:20.002Z,98459.90
2023-04-25T20:08:47.488Z,98460.15
2023-04-25T20:11:15.102Z,98459.23
2023-04-25T20:13:42.028Z,98459.37
2023-04-25T20:16:08.977Z,98458.09
2023-04-25T20:18:35.909Z,98463.20
2023-04-25T20:21:02.908Z,98465.46
2023-04-25T20:23:29.832Z,98462.90
2023-04-25T20:25:56.679Z,98466.03
2023-04-25T20:28:23.650Z,98465.77
2023-04-25T20:30:50.815Z,98468.75
2023-04-25T20:33:17.682Z,98468.45
2023-04-25T20:35:44.510Z,98470.38
2023-04-25T20:38:12.171Z,98468.67
2023-04-25T20:40:38.957Z,98469.43
2023-04-25T20:43:05.906Z,98471.96
2023-04-25T20:45:34.665Z,98476.56
2023-04-25T20:48:02.852Z,98478.25
2023-04-25T20:50:29.904Z,98477.92
2023-04-25T20:52:57.365Z,98475.89
2023-04-25T20:55:24.363Z,98477.45
2023-04-25T20:57:52.200Z,98482.41
2023-04-25T21:00:26.743Z,98486.33
2023-04-25T21:02:54.111Z,98485.50
2023-04-25T21:05:24.842Z,98488.57
2023-04-25T21:07:54.721Z,98485.71
2023-04-25T21:10:22.197Z,98489.40
2023-04-25T21:12:49.578Z,98490.61
2023-04-25T21:15:21.440Z,98488.42
2023-04-25T21:17:52.239Z,98488.83
2023-04-25T21:20:20.454Z,98487.94
2023-04-25T21:22:51.182Z,98493.05
2023-04-25T21:25:23.646Z,98490.63
2023-04-25T21:27:51.624Z,98494.73
2023-04-25T21:30:20.505Z,98490.26
2023-04-25T21:32:51.512Z,98494.69
2023-04-25T21:35:19.750Z,98495.89
2023-04-25T21:37:47.014Z,98490.47
2023-04-25T21:40:14.408Z,98490.95
2023-04-25T21:42:49.965Z,98490.13
2023-04-25T21:45:16.973Z,98493.84
2023-04-25T21:47:46.624Z,98490.70
2023-04-25T21:50:14.323Z,98489.19
2023-04-25T21:52:41.516Z,98484.76
2023-04-25T21:55:09.888Z,98482.89
2023-04-25T21:57:36.777Z,98481.32
2023-04-25T22:00:06.212Z,98483.14
2023-04-25T22:02:33.153Z,98481.66
2023-04-25T22:05:00.291Z,98482.38
2023-04-25T22:07:27.206Z,98480.98
2023-04-25T22:09:55.851Z,98475.88
2023-04-25T22:12:23.667Z,98477.79
2023-04-25T22:14:51.050Z,98478.68
2023-04-25T22:17:19.038Z,98475.98
2023-04-25T22:19:47.196Z,98478.13
2023-04-25T22:22:14.379Z,98475.59
2023-04-25T22:24:42.378Z,98472.83
2023-04-25T22:27:11.273Z,98473.55
2023-04-25T22:29:38.323Z,98471.63
2023-04-25T22:32:05.877Z,98472.70
2023-04-25T22:34:33.226Z,98469.17
2023-04-25T22:37:00.053Z,98474.23
2023-04-25T22:39:27.020Z,98472.54
2023-04-25T22:41:54.583Z,98479.16
2023-04-25T22:44:22.577Z,98480.88
2023-04-25T22:46:49.631Z,98474.85
2023-04-25T22:49:17.485Z,98480.08
2023-04-25T22:51:44.360Z,98480.04
2023-04-25T22:54:11.294Z,98478.86
2023-04-25T22:56:38.188Z,98480.49
2023-04-25T22:59:05.192Z,98479.34
2023-04-25T23:01:32.152Z,98482.25
2023-04-25T23:03:59.326Z,98484.34
2023-04-25T23:06:26.661Z,98483.39
2023-04-25T23:08:53.843Z,98481.19
2023-04-25T23:11:22.016Z,98479.19
2023-04-25T23:13:49.050Z,98476.52
2023-04-25T23:16:16.366Z,98475.95
2023-04-25T23:18:43.359Z,98480.04
2023-04-25T23:21:11.653Z,98478.42
2023-04-25T23:23:38.928Z,98476.64
2023-04-25T23:26:10.341Z,98475.33
2023-04-25T23:28:40.614Z,98471.86
2023-04-25T23:31:08.582Z,98472.04
2023-04-25T23:33:35.424Z,98469.30
2023-04-25T23:36:02.353Z,98467.65
2023-04-25T23:38:29.293Z,98465.76
2023-04-25T23:40:56.279Z,98469.58
2023-04-25T23:43:23.210Z,98466.07
2023-04-25T23:45:50.089Z,98466.21
2023-04-25T23:48:17.004Z,98467.63
2023-04-25T23:50:43.983Z,98472.03
2023-04-25T23:53:11.024Z,98469.70
2023-04-25T23:55:37.978Z,98467.45
2023-04-25T23:58:05.053Z,98469.23
